Louis Armstrong New Orleans International Airport
KMSY : now visible

Airfield :











YOU CAN JOIN US ON...

 
LOGIN :

Register | Disclaimer

   EN    FR    IT 

 









Legend :    VFR   Marginal VFR   IFR   Intensive IFR   Very Intensive IFR
Visi :
Ceiling :
>= 8 km
>= 3000ft
5 to 8 km
1000 to 3000 ft
1500m to 5 km
500 to 1000 ft
800 to 1500m
200 to 500 ft
< 800m
< 200 ft
Symbols :   Thunderstorms  Fog  Heavy snow  Heavy precipitations  Wind > 20 kt






- Airport Elevation : 4 ft
- IATA code : MSY


KMSY - Louis Armstrong New Orleans International

CURRENT METAR :
  • 232253Z 25005KT 10SM FEW046 SCT070 SCT085 33/24 A3006 RMK AO2 SLP182 T03330244

EXPIRED METARs :
  • 232153Z COR 35006KT 10SM SCT046 SCT120 SCT250 35/23 A3006 RMK SLP184 T03500228
  • 232053Z COR 00000KT 10SM FEW048 SCT250 35/23 A3008 RMK CB DSNT N AND NE S AND SW SLP188 T03500228 58026
  • 231953Z COR 35004KT 10SM FEW045 SCT250 35/24 A3010 RMK CB DSNT N AND SW-W SLP197 T03500239

TAF KMSY
Valid from the 23 at 18:00 until the 25 at 00:00 UTC


231737Z 2318/2424 VRB03KT P6SM FEW030
FM232200 28005KT P6SM VCTS FEW250CB
FM240000 27005KT P6SM FEW250
FM241100 30005KT P6SM FEW200
FM241500 33007KT P6SM FEW130
FM241800 34006KT P6SM -SHRA VCTS FEW080CB
KZHU FIR / North America



MET'MAP, your aeronautical weather chart ! - Copyright ORBIFLY December 2007 - Disclaimer

ORBIFLY MET'MAP TEAM :

Programming & Development : Alexandra Zaïnal
Concept & original design : Baudouin d'Aumeries
Assistance for programming : Marc-Olivier Méhu
Technical & hardware support : Manuel Goepfert

Contact : metmap@orbifly.com




SOURCES & CREDITS :

   NOAA       Earth
Advisory